createdAt,value
2022-10-05T00:00:14.962Z,7.403259
2022-10-05T00:01:24.776Z,7.352905
2022-10-05T00:02:33.425Z,7.332764
2022-10-05T00:03:41.088Z,7.322693
2022-10-05T00:04:50.856Z,7.352905
2022-10-05T00:05:59.508Z,7.352905
2022-10-05T00:07:09.205Z,7.362976
2022-10-05T00:08:18.909Z,7.423401
2022-10-05T00:09:26.607Z,7.483826
2022-10-05T00:10:36.318Z,7.473755
2022-10-05T00:11:46.030Z,7.453613
2022-10-05T00:12:54.736Z,7.423401
2022-10-05T00:14:04.469Z,7.362976
2022-10-05T00:15:12.218Z,7.352905
2022-10-05T00:16:20.960Z,7.393188
2022-10-05T00:17:30.626Z,7.433472
2022-10-05T00:18:38.321Z,7.503967
2022-10-05T00:19:47.994Z,7.53418
2022-10-05T00:20:56.766Z,7.584534
2022-10-05T00:22:06.503Z,7.604675
2022-10-05T00:23:16.200Z,7.634888
2022-10-05T00:24:24.911Z,7.655029
2022-10-05T00:25:33.608Z,7.655029
2022-10-05T00:26:42.304Z,7.614746
2022-10-05T00:27:50.985Z,7.574463
2022-10-05T00:29:00.679Z,7.564392
2022-10-05T00:30:09.355Z,7.54425
2022-10-05T00:31:18.174Z,7.514038
2022-10-05T00:32:27.806Z,7.503967
2022-10-05T00:33:35.510Z,7.473755
2022-10-05T00:34:44.213Z,7.453613
2022-10-05T00:35:53.933Z,7.423401
2022-10-05T00:37:01.579Z,7.433472
2022-10-05T00:38:11.335Z,7.403259
2022-10-05T00:39:21.049Z,7.403259
2022-10-05T00:40:28.767Z,7.383118
2022-10-05T00:41:37.483Z,7.403259
2022-10-05T00:42:45.207Z,7.403259
2022-10-05T00:43:54.922Z,7.433472
2022-10-05T00:45:04.674Z,7.503967
2022-10-05T00:46:12.404Z,7.514038
2022-10-05T00:47:22.037Z,7.53418
2022-10-05T00:48:30.762Z,7.53418
2022-10-05T00:49:39.495Z,7.503967
2022-10-05T00:50:49.209Z,7.514038
2022-10-05T00:51:57.861Z,7.53418
2022-10-05T00:53:06.547Z,7.54425
2022-10-05T00:54:18.435Z,7.53418
2022-10-05T00:55:23.897Z,7.54425
2022-10-05T00:56:33.583Z,7.53418
2022-10-05T00:57:42.260Z,7.564392
2022-10-05T00:58:50.954Z,7.574463
2022-10-05T01:00:00.670Z,7.614746
2022-10-05T01:01:08.444Z,7.634888
2022-10-05T01:02:17.152Z,7.6651
2022-10-05T01:03:26.790Z,7.685242
2022-10-05T01:04:35.496Z,7.695312
2022-10-05T01:05:45.199Z,7.695312
2022-10-05T01:06:54.066Z,7.695312
2022-10-05T01:08:03.717Z,7.715454
2022-10-05T01:09:13.409Z,7.745667
2022-10-05T01:10:23.111Z,7.755737
2022-10-05T01:11:32.792Z,7.78595
2022-10-05T01:12:41.526Z,7.816162
2022-10-05T01:13:50.216Z,7.796021
2022-10-05T01:14:59.907Z,7.826233
2022-10-05T01:16:07.683Z,7.866516
2022-10-05T01:17:17.337Z,7.846375
2022-10-05T01:18:26.241Z,7.866516
2022-10-05T01:19:34.931Z,7.866516
2022-10-05T01:20:44.615Z,7.846375
2022-10-05T01:21:53.301Z,7.826233
2022-10-05T01:23:03.041Z,7.816162
2022-10-05T01:24:12.773Z,7.826233
2022-10-05T01:25:20.477Z,7.826233
2022-10-05T01:26:29.159Z,7.846375
2022-10-05T01:27:37.851Z,7.846375
2022-10-05T01:28:46.521Z,7.866516
2022-10-05T01:29:56.221Z,7.896729
2022-10-05T01:31:04.956Z,7.876587
2022-10-05T01:32:13.589Z,7.926941
2022-10-05T01:33:23.283Z,7.947083
2022-10-05T01:34:30.964Z,7.977295
2022-10-05T01:35:39.664Z,8.027649
2022-10-05T01:36:48.683Z,8.057861
2022-10-05T01:37:57.039Z,8.118286
2022-10-05T01:39:06.762Z,8.148499
2022-10-05T01:40:15.486Z,8.178711
2022-10-05T01:41:25.202Z,8.158569
2022-10-05T01:42:34.980Z,8.158569
2022-10-05T01:43:44.640Z,8.148499
2022-10-05T01:44:54.324Z,8.128357
2022-10-05T01:46:03.132Z,8.128357
2022-10-05T01:47:10.751Z,8.128357
2022-10-05T01:48:20.441Z,8.128357
2022-10-05T01:49:29.100Z,8.148499
2022-10-05T01:50:38.811Z,8.118286
2022-10-05T01:51:48.508Z,8.088074
2022-10-05T01:52:56.248Z,8.057861
2022-10-05T01:54:05.945Z,7.977295
2022-10-05T01:55:14.648Z,7.977295
2022-10-05T01:56:23.312Z,7.997437
2022-10-05T01:57:33.009Z,8.007507
2022-10-05T01:58:40.763Z,7.997437
2022-10-05T01:59:50.461Z,7.997437
2022-10-05T02:01:00.287Z,7.997437
2022-10-05T02:02:08.918Z,7.977295
2022-10-05T02:03:18.570Z,7.967224
2022-10-05T02:04:56.842Z,7.947083
2022-10-05T02:05:37.938Z,7.906799
2022-10-05T02:06:47.875Z,7.896729
2022-10-05T02:07:56.364Z,7.846375
2022-10-05T02:09:06.074Z,7.846375
2022-10-05T02:10:15.902Z,7.846375
2022-10-05T02:11:23.610Z,7.826233
2022-10-05T02:12:32.268Z,7.755737
2022-10-05T02:13:41.951Z,7.745667
2022-10-05T02:14:50.623Z,7.685242
2022-10-05T02:16:00.399Z,7.614746
2022-10-05T02:17:09.024Z,7.54425
2022-10-05T02:18:17.709Z,7.473755
2022-10-05T02:19:27.411Z,7.403259
2022-10-05T02:20:35.076Z,7.362976
2022-10-05T02:21:44.824Z,7.312622
2022-10-05T02:22:54.527Z,7.28241
2022-10-05T02:24:03.222Z,7.232056
2022-10-05T02:25:12.907Z,7.201843
2022-10-05T02:26:20.585Z,7.171631
2022-10-05T02:27:29.308Z,7.171631
2022-10-05T02:28:39.036Z,7.141418
2022-10-05T02:29:46.672Z,7.151489
2022-10-05T02:30:56.345Z,7.171631
2022-10-05T02:32:05.036Z,7.201843
2022-10-05T02:33:13.732Z,7.201843
2022-10-05T02:34:23.483Z,7.211914
2022-10-05T02:35:32.172Z,7.201843
2022-10-05T02:36:40.885Z,7.201843
2022-10-05T02:37:50.582Z,7.232056
2022-10-05T02:38:59.299Z,7.242126
2022-10-05T02:40:08.986Z,7.242126
2022-10-05T02:41:17.753Z,7.252197
2022-10-05T02:42:26.418Z,7.28241
2022-10-05T02:43:36.136Z,7.29248
2022-10-05T02:44:44.829Z,7.312622
2022-10-05T02:45:53.571Z,7.28241
2022-10-05T02:47:03.219Z,7.211914
2022-10-05T02:48:10.886Z,7.151489
2022-10-05T02:49:20.589Z,7.131348
2022-10-05T02:50:29.308Z,7.060852
2022-10-05T02:51:37.992Z,7.020569
2022-10-05T02:52:47.679Z,6.970215
2022-10-05T02:53:55.355Z,6.889648
2022-10-05T02:55:04.054Z,6.889648
2022-10-05T02:56:13.761Z,6.879578
2022-10-05T02:57:21.427Z,6.879578
2022-10-05T02:58:31.132Z,6.889648
2022-10-05T02:59:40.855Z,6.919861
2022-10-05T03:00:48.591Z,6.929932
2022-10-05T03:01:57.296Z,6.990356
2022-10-05T03:03:05.924Z,7.000427
2022-10-05T03:04:15.619Z,7.000427
2022-10-05T03:05:25.300Z,6.990356
2022-10-05T03:06:33.976Z,7.020569
2022-10-05T03:07:43.736Z,6.970215
2022-10-05T03:08:52.425Z,6.950073
2022-10-05T03:10:01.510Z,6.919861
2022-10-05T03:11:09.812Z,6.919861
2022-10-05T03:12:17.531Z,6.879578
2022-10-05T03:13:27.391Z,6.869507
2022-10-05T03:14:35.060Z,6.819153
2022-10-05T03:15:44.829Z,6.819153
2022-10-05T03:16:54.455Z,6.819153
2022-10-05T03:18:03.167Z,6.809082
2022-10-05T03:19:12.878Z,6.77887
2022-10-05T03:20:22.574Z,6.78894
2022-10-05T03:21:30.265Z,6.809082
2022-10-05T03:22:39.987Z,6.839294
2022-10-05T03:23:47.687Z,6.869507
2022-10-05T03:24:56.530Z,6.869507
2022-10-05T03:26:06.231Z,6.869507
2022-10-05T03:27:13.910Z,6.879578
2022-10-05T03:28:24.720Z,6.869507
2022-10-05T03:29:34.290Z,6.849365
2022-10-05T03:30:41.994Z,6.839294
2022-10-05T03:31:51.699Z,6.819153
2022-10-05T03:33:01.358Z,6.809082
2022-10-05T03:34:11.044Z,6.78894
2022-10-05T03:35:20.723Z,6.748657
2022-10-05T03:36:29.464Z,6.738586
2022-10-05T03:37:39.166Z,6.698303
2022-10-05T03:38:47.848Z,6.688232
2022-10-05T03:39:55.530Z,6.627808
2022-10-05T03:41:05.216Z,6.597595
2022-10-05T03:42:13.909Z,6.567383
2022-10-05T03:43:23.592Z,6.557312
2022-10-05T03:44:33.290Z,6.486816
2022-10-05T03:45:40.966Z,6.506958
2022-10-05T03:46:50.742Z,6.517029
2022-10-05T03:48:01.562Z,6.486816
2022-10-05T03:49:07.021Z,6.446533
2022-10-05T03:50:16.728Z,6.486816
2022-10-05T03:51:25.415Z,6.517029
2022-10-05T03:52:35.137Z,6.517029
2022-10-05T03:53:44.877Z,6.53717
2022-10-05T03:54:53.594Z,6.627808
2022-10-05T03:56:03.494Z,6.637878
2022-10-05T03:57:11.994Z,6.688232
2022-10-05T03:58:20.682Z,6.738586
2022-10-05T03:59:32.680Z,6.748657
2022-10-05T04:00:40.216Z,6.768799
2022-10-05T04:01:48.967Z,6.77887
2022-10-05T04:02:58.636Z,6.748657
2022-10-05T04:04:07.355Z,6.738586
2022-10-05T04:05:17.098Z,6.768799
2022-10-05T04:06:25.838Z,6.839294
2022-10-05T04:07:34.698Z,6.839294
2022-10-05T04:08:47.758Z,6.889648
2022-10-05T04:09:54.096Z,6.929932
2022-10-05T04:11:03.815Z,7.000427
2022-10-05T04:12:13.519Z,7.03064
2022-10-05T04:13:21.271Z,7.101135
2022-10-05T04:14:30.970Z,7.111206
2022-10-05T04:15:39.714Z,7.101135
2022-10-05T04:16:47.918Z,7.111206
2022-10-05T04:17:56.161Z,7.151489
2022-10-05T04:19:03.819Z,7.201843
2022-10-05T04:20:13.537Z,7.242126
2022-10-05T04:21:23.990Z,7.252197
2022-10-05T04:22:30.886Z,7.29248
2022-10-05T04:23:40.569Z,7.29248
2022-10-05T04:24:49.263Z,7.312622
2022-10-05T04:25:56.942Z,7.322693
2022-10-05T04:27:06.614Z,7.362976
2022-10-05T04:28:15.501Z,7.352905
2022-10-05T04:29:24.117Z,7.332764
2022-10-05T04:30:33.827Z,7.322693
2022-10-05T04:31:42.546Z,7.322693
2022-10-05T04:32:52.169Z,7.28241
2022-10-05T04:34:01.922Z,7.232056
2022-10-05T04:35:10.581Z,7.242126
2022-10-05T04:36:20.370Z,7.232056
2022-10-05T04:37:29.037Z,7.211914
2022-10-05T04:38:37.732Z,7.181702
2022-10-05T04:39:46.464Z,7.181702
2022-10-05T04:40:55.153Z,7.201843
2022-10-05T04:42:04.861Z,7.171631
2022-10-05T04:43:13.541Z,7.131348
2022-10-05T04:44:21.703Z,7.131348
2022-10-05T04:45:31.443Z,7.111206
2022-10-05T04:46:39.182Z,7.171631
2022-10-05T04:47:47.796Z,7.201843
2022-10-05T04:48:57.638Z,7.181702
2022-10-05T04:50:06.315Z,7.252197
2022-10-05T04:51:16.024Z,7.252197
2022-10-05T04:52:24.750Z,7.232056
2022-10-05T04:53:33.422Z,7.201843
2022-10-05T04:54:43.110Z,7.171631
2022-10-05T04:55:51.842Z,7.151489
2022-10-05T04:57:01.550Z,7.141418
2022-10-05T04:58:11.247Z,7.151489
2022-10-05T04:59:19.921Z,7.151489
2022-10-05T05:00:29.693Z,7.171631
2022-10-05T05:01:39.317Z,7.181702
2022-10-05T05:02:49.022Z,7.242126
2022-10-05T05:03:57.781Z,7.28241
2022-10-05T05:05:06.481Z,7.28241
2022-10-05T05:06:17.618Z,7.242126
2022-10-05T05:07:24.880Z,7.211914
2022-10-05T05:08:33.651Z,7.211914
2022-10-05T05:09:43.325Z,7.211914
2022-10-05T05:10:51.019Z,7.28241
2022-10-05T05:12:00.721Z,7.28241
2022-10-05T05:13:10.421Z,7.29248
2022-10-05T05:14:18.124Z,7.312622
2022-10-05T05:15:27.848Z,7.352905
2022-10-05T05:16:36.570Z,7.362976
2022-10-05T05:17:45.241Z,7.362976
2022-10-05T05:18:54.931Z,7.362976
2022-10-05T05:20:02.666Z,7.362976
2022-10-05T05:21:12.353Z,7.322693
2022-10-05T05:22:21.039Z,7.332764
2022-10-05T05:23:28.852Z,7.362976
2022-10-05T05:24:38.469Z,7.403259
2022-10-05T05:25:47.172Z,7.433472
2022-10-05T05:26:56.831Z,7.453613
2022-10-05T05:28:05.572Z,7.423401
2022-10-05T05:29:13.211Z,7.403259
2022-10-05T05:30:22.925Z,7.423401
2022-10-05T05:31:32.697Z,7.423401
2022-10-05T05:32:41.373Z,7.403259
2022-10-05T05:33:51.076Z,7.473755
2022-10-05T05:34:59.779Z,7.54425
2022-10-05T05:36:08.442Z,7.574463
2022-10-05T05:37:19.126Z,7.584534
2022-10-05T05:38:27.829Z,7.584534
2022-10-05T05:39:37.560Z,7.604675
2022-10-05T05:40:46.269Z,7.614746
2022-10-05T05:41:54.916Z,7.634888
2022-10-05T05:43:04.643Z,7.655029
2022-10-05T05:44:12.323Z,7.6651
2022-10-05T05:45:22.025Z,7.695312
2022-10-05T05:46:51.506Z,7.715454
2022-10-05T05:47:42.443Z,7.715454
2022-10-05T05:48:52.148Z,7.715454
2022-10-05T05:50:06.532Z,7.695312
2022-10-05T05:51:09.582Z,7.695312
2022-10-05T05:52:19.267Z,7.715454
2022-10-05T05:53:27.932Z,7.695312
2022-10-05T05:54:36.653Z,7.695312
2022-10-05T05:55:46.344Z,7.715454
2022-10-05T05:56:55.060Z,7.715454
2022-10-05T05:58:04.707Z,7.725525
2022-10-05T05:59:13.392Z,7.755737
2022-10-05T06:00:22.210Z,7.765808
2022-10-05T06:01:33.500Z,7.846375
2022-10-05T06:02:42.694Z,7.876587
2022-10-05T06:03:52.285Z,7.937012
2022-10-05T06:05:01.985Z,7.997437
2022-10-05T06:06:11.739Z,8.057861
2022-10-05T06:07:21.437Z,8.148499
2022-10-05T06:08:31.090Z,8.239136
2022-10-05T06:09:38.782Z,8.339844
2022-10-05T06:10:48.467Z,8.450623
2022-10-05T06:11:58.191Z,8.521118
2022-10-05T06:13:06.864Z,8.641968
2022-10-05T06:14:16.577Z,8.742676
2022-10-05T06:15:25.278Z,8.843384
2022-10-05T06:16:35.046Z,8.873596
2022-10-05T06:17:43.683Z,8.92395
2022-10-05T06:18:51.376Z,8.974304
2022-10-05T06:20:04.858Z,9.034729
2022-10-05T06:21:10.786Z,9.125366
2022-10-05T06:22:18.460Z,9.185791
2022-10-05T06:23:28.166Z,9.246216
2022-10-05T06:24:35.838Z,9.336853
2022-10-05T06:25:45.513Z,9.397278
2022-10-05T06:26:55.201Z,9.457703
2022-10-05T06:28:02.965Z,9.54834
2022-10-05T06:29:12.597Z,9.649048
2022-10-05T06:30:20.292Z,9.689331
2022-10-05T06:31:29.092Z,9.769897
2022-10-05T06:32:38.762Z,9.860535
2022-10-05T06:33:46.465Z,9.951172
2022-10-05T06:34:56.288Z,10.05188
2022-10-05T06:36:04.970Z,10.202942
2022-10-05T06:37:13.681Z,10.333862
2022-10-05T06:38:22.359Z,10.4245
2022-10-05T06:39:30.049Z,10.585632
2022-10-05T06:40:39.755Z,10.776978
2022-10-05T06:41:49.466Z,10.958252
2022-10-05T06:42:58.152Z,11.079102
2022-10-05T06:44:06.922Z,11.18988
2022-10-05T06:45:16.515Z,11.351013
2022-10-05T06:46:24.301Z,11.481934
2022-10-05T06:47:33.928Z,11.602783
2022-10-05T06:48:42.643Z,11.703491
2022-10-05T06:49:51.322Z,11.773987
2022-10-05T06:51:01.020Z,11.834412
2022-10-05T06:52:08.730Z,11.864624
2022-10-05T06:53:18.435Z,11.914978
2022-10-05T06:54:27.127Z,11.995544
2022-10-05T06:55:35.823Z,12.086182
2022-10-05T06:56:45.822Z,12.207031
2022-10-05T06:57:53.206Z,12.287598
2022-10-05T06:59:02.915Z,12.358093
2022-10-05T07:00:10.598Z,12.348022
2022-10-05T07:01:19.370Z,12.368164
2022-10-05T07:02:29.035Z,12.458801
2022-10-05T07:03:37.797Z,12.579651
2022-10-05T07:04:47.497Z,12.640076
2022-10-05T07:05:56.193Z,12.760925
2022-10-05T07:07:04.859Z,12.911987
2022-10-05T07:08:14.573Z,12.952271
2022-10-05T07:09:22.269Z,12.982483
2022-10-05T07:10:30.962Z,13.093262
2022-10-05T07:11:40.658Z,13.19397
2022-10-05T07:12:49.368Z,13.224182
2022-10-05T07:13:58.052Z,13.284607
2022-10-05T07:15:07.804Z,13.385315
2022-10-05T07:16:15.560Z,13.496094
2022-10-05T07:17:25.176Z,13.596802
2022-10-05T07:18:34.868Z,13.717651
2022-10-05T07:19:43.584Z,13.808289
2022-10-05T07:20:53.413Z,13.969421
2022-10-05T07:22:02.135Z,14.20105
2022-10-05T07:23:11.810Z,14.352112
2022-10-05T07:24:21.517Z,14.472961
2022-10-05T07:25:29.207Z,14.603882
2022-10-05T07:26:37.931Z,14.775085
2022-10-05T07:27:49.503Z,14.875793
2022-10-05T07:28:55.270Z,14.966431
2022-10-05T07:30:04.964Z,15.036926
2022-10-05T07:31:12.666Z,15.238342
2022-10-05T07:32:22.384Z,15.328979
2022-10-05T07:33:32.062Z,15.359192
2022-10-05T07:34:39.741Z,15.399475
2022-10-05T07:35:48.429Z,15.4599
2022-10-05T07:36:56.350Z,15.570679
2022-10-05T07:38:04.851Z,15.671387
2022-10-05T07:39:14.547Z,15.721741
2022-10-05T07:40:24.250Z,15.792236
2022-10-05T07:41:33.924Z,15.862732
2022-10-05T07:42:49.104Z,15.923157
2022-10-05T07:44:12.486Z,16.174927
2022-10-05T07:45:04.029Z,16.356201
2022-10-05T07:46:12.750Z,16.46698
2022-10-05T07:47:21.429Z,16.5979
2022-10-05T07:48:31.228Z,16.779175
2022-10-05T07:49:38.853Z,16.889954
2022-10-05T07:50:48.517Z,16.97052
2022-10-05T07:51:57.219Z,17.192078
2022-10-05T07:53:06.915Z,17.484131
2022-10-05T07:54:16.643Z,17.695618
2022-10-05T07:55:25.349Z,17.84668
2022-10-05T07:56:35.024Z,17.937317
2022-10-05T07:57:44.741Z,18.128662
2022-10-05T07:58:52.440Z,18.289795
2022-10-05T08:00:02.126Z,18.551636
2022-10-05T08:01:10.855Z,18.783264
2022-10-05T08:02:19.703Z,18.60199
2022-10-05T08:03:29.252Z,18.521423
2022-10-05T08:04:41.517Z,18.279724
2022-10-05T08:05:46.610Z,18.501282
2022-10-05T08:06:55.439Z,18.803406
2022-10-05T08:08:03.132Z,19.155884
2022-10-05T08:09:12.833Z,19.397583
2022-10-05T08:10:21.643Z,19.629211
2022-10-05T08:11:29.226Z,19.770203
2022-10-05T08:12:37.955Z,19.941406
2022-10-05T08:13:46.643Z,20.021973
2022-10-05T08:14:56.322Z,20.042114
2022-10-05T08:16:06.099Z,20.314026
2022-10-05T08:17:14.719Z,20.293884
2022-10-05T08:18:24.416Z,19.629211
2022-10-05T08:19:33.109Z,19.699707
2022-10-05T08:20:40.897Z,19.73999
2022-10-05T08:21:50.773Z,19.86084
2022-10-05T08:22:58.222Z,20.253601
2022-10-05T08:24:07.039Z,20.324097
2022-10-05T08:25:16.726Z,20.374451
2022-10-05T08:26:24.520Z,20.344238
2022-10-05T08:27:34.221Z,20.183105
2022-10-05T08:28:42.970Z,20.132751
2022-10-05T08:29:51.727Z,20.001831
2022-10-05T08:31:01.451Z,19.880981
2022-10-05T08:32:09.094Z,19.951477
2022-10-05T08:33:17.792Z,20.11261
2022-10-05T08:34:27.487Z,20.183105
2022-10-05T08:35:35.209Z,20.465088
2022-10-05T08:36:44.966Z,20.737
2022-10-05T08:37:54.591Z,20.86792
2022-10-05T08:39:02.275Z,21.139832
2022-10-05T08:40:11.962Z,21.089478
2022-10-05T08:41:19.811Z,21.270752
2022-10-05T08:42:29.504Z,20.86792
2022-10-05T08:43:39.208Z,20.666504
2022-10-05T08:44:46.880Z,20.394592
2022-10-05T08:45:56.635Z,20.575867
2022-10-05T08:47:05.285Z,20.797424
2022-10-05T08:48:12.996Z,21.089478
2022-10-05T08:49:22.711Z,21.552734
2022-10-05T08:50:32.392Z,21.703796
2022-10-05T08:51:41.069Z,21.764221
2022-10-05T08:52:49.835Z,21.703796
2022-10-05T08:53:57.516Z,21.139832
2022-10-05T08:55:07.217Z,21.210327
2022-10-05T08:56:19.155Z,21.542664
2022-10-05T08:57:24.598Z,21.925354
2022-10-05T08:58:33.327Z,22.24762
2022-10-05T08:59:43.022Z,22.318115
2022-10-05T09:00:52.737Z,22.358398
2022-10-05T09:02:00.426Z,22.569885
2022-10-05T09:03:10.135Z,22.811584
2022-10-05T09:04:19.825Z,22.529602
2022-10-05T09:05:28.515Z,22.197266
2022-10-05T09:06:38.209Z,22.318115
2022-10-05T09:07:46.893Z,22.831726
2022-10-05T09:08:54.679Z,23.023071
2022-10-05T09:10:04.348Z,22.962646
2022-10-05T09:11:12.036Z,22.680664
2022-10-05T09:12:20.740Z,22.851868
2022-10-05T09:13:30.442Z,22.992859
2022-10-05T09:14:39.113Z,22.549744
2022-10-05T09:15:49.915Z,22.449036
2022-10-05T09:16:58.575Z,22.50946
2022-10-05T09:18:08.288Z,22.811584
2022-10-05T09:19:17.987Z,23.063354
2022-10-05T09:20:26.691Z,23.244629
2022-10-05T09:21:35.402Z,23.305054
2022-10-05T09:22:45.081Z,23.355408
2022-10-05T09:23:53.776Z,23.576965
2022-10-05T09:25:03.514Z,23.617249
2022-10-05T09:26:13.198Z,23.365479
2022-10-05T09:27:22.043Z,23.153992
2022-10-05T09:28:31.788Z,22.932434
2022-10-05T09:29:39.427Z,22.872009
2022-10-05T09:30:48.140Z,22.912292
2022-10-05T09:31:57.796Z,23.00293
2022-10-05T09:33:05.495Z,23.184204
2022-10-05T09:34:15.202Z,23.103638
2022-10-05T09:35:22.908Z,22.942505
2022-10-05T09:36:30.585Z,22.942505
2022-10-05T09:37:40.253Z,22.841797
2022-10-05T09:38:47.951Z,22.851868
2022-10-05T09:40:00.507Z,22.831726
2022-10-05T09:41:06.359Z,22.49939
2022-10-05T09:42:15.057Z,22.348328
2022-10-05T09:43:24.742Z,22.63031
2022-10-05T09:44:34.562Z,23.2547
2022-10-05T09:45:43.257Z,23.607178
2022-10-05T09:46:51.924Z,23.687744
2022-10-05T09:48:00.633Z,23.828735
2022-10-05T09:49:10.292Z,23.587036
2022-10-05T09:50:20.008Z,23.456116
2022-10-05T09:51:27.660Z,23.435974
2022-10-05T09:52:37.352Z,23.38562
2022-10-05T09:53:47.029Z,23.365479
2022-10-05T09:54:54.737Z,23.033142
2022-10-05T09:56:04.452Z,22.700806
2022-10-05T09:57:13.192Z,22.449036
2022-10-05T09:58:20.887Z,22.590027
2022-10-05T09:59:30.583Z,22.680664
2022-10-05T10:00:39.278Z,22.720947
2022-10-05T10:01:50.132Z,22.982788
2022-10-05T10:02:59.824Z,22.962646
2022-10-05T10:04:08.441Z,22.569885
2022-10-05T10:05:17.171Z,22.348328
2022-10-05T10:06:25.841Z,22.277832
2022-10-05T10:07:35.663Z,22.358398
2022-10-05T10:08:45.374Z,22.277832
2022-10-05T10:09:53.047Z,22.388611
2022-10-05T10:11:01.742Z,22.690735
2022-10-05T10:12:11.425Z,23.053284
2022-10-05T10:13:19.132Z,23.365479
2022-10-05T10:14:28.830Z,23.405762
2022-10-05T10:15:38.586Z,23.798523
2022-10-05T10:16:47.210Z,24.050293
2022-10-05T10:17:56.929Z,24.14093
2022-10-05T10:19:05.651Z,24.01001
2022-10-05T10:20:14.348Z,23.959656
2022-10-05T10:21:24.059Z,23.798523
2022-10-05T10:22:32.737Z,23.576965
2022-10-05T10:23:42.473Z,23.305054
2022-10-05T10:24:52.139Z,23.315125
2022-10-05T10:26:00.835Z,23.305054
2022-10-05T10:27:10.560Z,23.435974
2022-10-05T10:28:18.289Z,23.687744
2022-10-05T10:29:28.008Z,23.909302
2022-10-05T10:30:37.677Z,23.949585
2022-10-05T10:31:45.707Z,24.241638
2022-10-05T10:32:55.138Z,24.422913
2022-10-05T10:34:03.870Z,24.14093
2022-10-05T10:35:11.620Z,24.211426
2022-10-05T10:36:21.328Z,24.14093
2022-10-05T10:37:29.033Z,24.171143
2022-10-05T10:38:37.731Z,24.382629
2022-10-05T10:39:47.451Z,24.14093
2022-10-05T10:40:56.135Z,24.080505
2022-10-05T10:42:05.863Z,24.01001
2022-10-05T10:43:15.635Z,23.989868
2022-10-05T10:44:24.309Z,23.869019
2022-10-05T10:45:34.021Z,23.838806
2022-10-05T10:46:43.699Z,23.858948
2022-10-05T10:47:52.520Z,24.050293
2022-10-05T10:49:02.210Z,24.14093
2022-10-05T10:50:10.892Z,24.332275
2022-10-05T10:51:20.607Z,24.664612
2022-10-05T10:52:28.276Z,24.694824
2022-10-05T10:53:38.004Z,24.322205
2022-10-05T10:54:46.719Z,24.181213
2022-10-05T10:55:54.413Z,24.020081
2022-10-05T10:57:04.122Z,24.050293
2022-10-05T10:58:16.156Z,23.959656
2022-10-05T10:59:24.538Z,24.201355
2022-10-05T11:00:34.289Z,24.171143
2022-10-05T11:01:42.081Z,24.181213
2022-10-05T11:02:51.753Z,24.060364
2022-10-05T11:04:00.398Z,24.100647
2022-10-05T11:05:09.104Z,23.929443
2022-10-05T11:06:18.811Z,24.231567
2022-10-05T11:07:26.514Z,24.291992
2022-10-05T11:08:35.217Z,24.362488
2022-10-05T11:09:44.914Z,24.362488
2022-10-05T11:10:53.640Z,24.51355
2022-10-05T11:12:03.314Z,24.362488
2022-10-05T11:13:13.013Z,24.322205
2022-10-05T11:14:20.716Z,24.161072
2022-10-05T11:15:30.477Z,24.130859
2022-10-05T11:16:40.192Z,24.130859
2022-10-05T11:17:49.929Z,24.030151
2022-10-05T11:18:59.666Z,24.332275
2022-10-05T11:20:07.428Z,24.352417
2022-10-05T11:21:17.067Z,24.553833
2022-10-05T11:22:25.796Z,24.584045
2022-10-05T11:23:38.700Z,24.422913
2022-10-05T11:24:44.164Z,24.332275
2022-10-05T11:25:52.940Z,24.362488
2022-10-05T11:27:01.631Z,24.553833
2022-10-05T11:28:11.437Z,24.725037
2022-10-05T11:29:19.094Z,24.483337
2022-10-05T11:30:28.797Z,24.322205
2022-10-05T11:31:37.581Z,24.291992
2022-10-05T11:32:45.187Z,24.553833
2022-10-05T11:33:55.030Z,24.725037
2022-10-05T11:35:03.778Z,24.775391
2022-10-05T11:36:12.532Z,24.704895
2022-10-05T11:37:22.219Z,24.76532
2022-10-05T11:38:31.918Z,24.76532
2022-10-05T11:39:41.757Z,24.906311
2022-10-05T11:40:49.435Z,24.835815
2022-10-05T11:41:58.142Z,24.654541
2022-10-05T11:43:07.835Z,24.855957
2022-10-05T11:44:16.538Z,25.067444
2022-10-05T11:45:25.250Z,25.258789
2022-10-05T11:46:34.999Z,25.137939
2022-10-05T11:47:42.634Z,25.258789
2022-10-05T11:48:52.340Z,25.429993
2022-10-05T11:50:02.204Z,25.319214
2022-10-05T11:51:09.899Z,24.916382
2022-10-05T11:52:19.597Z,24.876099
2022-10-05T11:53:28.320Z,24.976807
2022-10-05T11:54:52.383Z,25.248718
2022-10-05T11:55:48.669Z,25.067444
2022-10-05T11:56:57.637Z,25.137939
2022-10-05T11:58:07.054Z,25.359497
2022-10-05T11:59:15.725Z,25.581055
2022-10-05T12:00:23.404Z,25.782471
2022-10-05T12:01:33.107Z,26.104736
2022-10-05T12:02:42.794Z,26.306152
2022-10-05T12:03:49.613Z,26.094666
2022-10-05T12:04:59.266Z,25.983887
2022-10-05T12:06:07.948Z,25.842896
2022-10-05T12:07:17.624Z,25.983887
2022-10-05T12:08:26.339Z,26.185303
2022-10-05T12:09:34.021Z,26.306152
2022-10-05T12:10:43.708Z,26.074524
2022-10-05T12:11:54.354Z,26.175232
2022-10-05T12:13:01.398Z,26.286011
2022-10-05T12:14:10.802Z,26.356506
2022-10-05T12:15:19.479Z,26.65863
2022-10-05T12:16:29.258Z,26.65863
2022-10-05T12:17:38.916Z,27.021179
2022-10-05T12:18:46.600Z,27.262878
2022-10-05T12:19:56.304Z,27.554932
2022-10-05T12:21:06.069Z,27.554932
2022-10-05T12:22:15.754Z,27.1521
2022-10-05T12:23:25.379Z,26.578064
2022-10-05T12:24:33.052Z,26.598206
2022-10-05T12:25:42.769Z,26.698914
2022-10-05T12:26:51.482Z,26.90033
2022-10-05T12:28:00.257Z,26.90033
2022-10-05T12:29:09.915Z,27.071533
2022-10-05T12:30:18.623Z,27.272949
2022-10-05T12:31:27.372Z,27.323303
2022-10-05T12:32:37.016Z,26.970825
2022-10-05T12:33:45.719Z,26.809692
2022-10-05T12:35:01.381Z,27.182312
2022-10-05T12:36:06.048Z,26.809692
2022-10-05T12:37:15.795Z,26.65863
2022-10-05T12:38:24.541Z,26.809692
2022-10-05T12:39:34.220Z,26.930542
2022-10-05T12:40:43.905Z,26.970825
2022-10-05T12:41:53.578Z,27.1521
2022-10-05T12:43:03.590Z,27.101746
2022-10-05T12:44:13.305Z,27.081604
2022-10-05T12:45:22.978Z,27.021179
2022-10-05T12:46:30.667Z,26.769409
2022-10-05T12:47:40.399Z,26.578064
2022-10-05T12:48:50.091Z,26.749268
2022-10-05T12:49:59.812Z,26.708984
2022-10-05T12:51:07.498Z,26.427002
2022-10-05T12:52:16.208Z,26.52771
2022-10-05T12:53:25.939Z,26.769409
2022-10-05T12:54:33.810Z,26.708984
2022-10-05T12:55:43.578Z,26.880188
2022-10-05T12:56:52.372Z,27.021179
2022-10-05T12:58:00.080Z,27.071533
2022-10-05T12:59:09.775Z,27.40387
2022-10-05T13:00:22.856Z,27.645569
2022-10-05T13:01:28.171Z,27.846985
2022-10-05T13:02:37.870Z,28.078613
2022-10-05T13:03:45.545Z,28.018188
2022-10-05T13:04:55.243Z,28.259888
2022-10-05T13:06:03.967Z,27.977905
2022-10-05T13:07:12.638Z,27.705994
2022-10-05T13:08:22.360Z,27.645569
2022-10-05T13:09:31.028Z,27.867126
2022-10-05T13:10:39.760Z,28.03833
2022-10-05T13:11:49.461Z,28.008118
2022-10-05T13:12:57.155Z,27.947693
2022-10-05T13:14:06.838Z,28.018188
2022-10-05T13:15:15.526Z,27.424011
2022-10-05T13:16:24.283Z,27.172241
2022-10-05T13:17:33.940Z,27.121887
2022-10-05T13:18:42.708Z,27.222595
2022-10-05T13:19:52.393Z,27.001038
2022-10-05T13:21:02.096Z,27.081604